Petersburg, Alaska
Current Conditions -  °F | °C
As of 2:36 PM on Saturday 25 Oct 2014 (Local Time) from PAPG Reporting Station
Scattered Clouds Scattered Clouds  
Wind Chill: 46°   Ceiling: Unl
Heat Index: 48°   Visibility: 10mi
Dew Point: 39°   Wind: 5mph
Humidity: 71%   Direction: 100°E
Pressure: 29.64"   Gusts: NA
Location:  56.81°N, 132.96°W
Report Text: PAPG 252236Z 10004KT 10SM SCT018 09/04 A2964 RMK AO1 WEA: NONE
Loading
Personal Weather Stations






























Interactive Weather Map
Tropical Storm Tracking
New forecast layout! Learn more

10-Day Weather Forecast

Advertisements
Track Severe Weather on mobile